sensor_id;sensor_type;location;lat;lon;timestamp;P1;durP1;ratioP1;P2;durP2;ratioP2
70929;SDS011;58588;48.102;19.682;2023-04-25T00:00:57;16.07;;;8.17;;
70929;SDS011;58588;48.102;19.682;2023-04-25T00:04:01;16.63;;;8.40;;
70929;SDS011;58588;48.102;19.682;2023-04-25T00:07:03;17.20;;;9.05;;
70929;SDS011;58588;48.102;19.682;2023-04-25T00:10:06;15.48;;;8.23;;
70929;SDS011;58588;48.102;19.682;2023-04-25T00:13:09;16.67;;;8.68;;
70929;SDS011;58588;48.102;19.682;2023-04-25T00:16:11;17.40;;;9.00;;
70929;SDS011;58588;48.102;19.682;2023-04-25T00:19:16;18.67;;;9.13;;
70929;SDS011;58588;48.102;19.682;2023-04-25T00:22:19;18.02;;;8.75;;
70929;SDS011;58588;48.102;19.682;2023-04-25T00:25:21;17.65;;;8.82;;
70929;SDS011;58588;48.102;19.682;2023-04-25T00:28:23;17.92;;;9.32;;
70929;SDS011;58588;48.102;19.682;2023-04-25T00:31:25;16.73;;;8.23;;
70929;SDS011;58588;48.102;19.682;2023-04-25T00:34:30;19.48;;;9.77;;
70929;SDS011;58588;48.102;19.682;2023-04-25T00:37:32;19.42;;;8.98;;
70929;SDS011;58588;48.102;19.682;2023-04-25T00:40:34;17.35;;;9.13;;
70929;SDS011;58588;48.102;19.682;2023-04-25T00:43:37;17.23;;;8.65;;
70929;SDS011;58588;48.102;19.682;2023-04-25T00:46:39;15.30;;;8.10;;
70929;SDS011;58588;48.102;19.682;2023-04-25T00:49:42;16.27;;;8.75;;
70929;SDS011;58588;48.102;19.682;2023-04-25T00:52:44;18.45;;;8.73;;
70929;SDS011;58588;48.102;19.682;2023-04-25T00:55:47;15.70;;;7.95;;
70929;SDS011;58588;48.102;19.682;2023-04-25T00:58:51;16.02;;;8.13;;
70929;SDS011;58588;48.102;19.682;2023-04-25T01:01:56;15.87;;;7.97;;
70929;SDS011;58588;48.102;19.682;2023-04-25T01:05:00;14.63;;;7.43;;
70929;SDS011;58588;48.102;19.682;2023-04-25T01:08:03;15.55;;;7.72;;
70929;SDS011;58588;48.102;19.682;2023-04-25T01:11:05;14.70;;;7.35;;
70929;SDS011;58588;48.102;19.682;2023-04-25T01:14:08;14.95;;;8.07;;
70929;SDS011;58588;48.102;19.682;2023-04-25T01:17:10;13.30;;;6.87;;
70929;SDS011;58588;48.102;19.682;2023-04-25T01:20:14;14.52;;;7.25;;
70929;SDS011;58588;48.102;19.682;2023-04-25T01:23:18;14.98;;;7.25;;
70929;SDS011;58588;48.102;19.682;2023-04-25T01:26:22;15.07;;;7.53;;
70929;SDS011;58588;48.102;19.682;2023-04-25T01:29:25;13.60;;;7.00;;
70929;SDS011;58588;48.102;19.682;2023-04-25T01:32:28;12.90;;;6.80;;
70929;SDS011;58588;48.102;19.682;2023-04-25T01:35:38;12.15;;;5.85;;
70929;SDS011;58588;48.102;19.682;2023-04-25T01:38:41;12.98;;;6.88;;
70929;SDS011;58588;48.102;19.682;2023-04-25T01:41:44;13.00;;;6.47;;
70929;SDS011;58588;48.102;19.682;2023-04-25T01:44:46;13.18;;;6.65;;
70929;SDS011;58588;48.102;19.682;2023-04-25T01:47:48;12.03;;;5.60;;
70929;SDS011;58588;48.102;19.682;2023-04-25T01:50:50;12.55;;;6.63;;
70929;SDS011;58588;48.102;19.682;2023-04-25T01:53:54;14.85;;;6.60;;
70929;SDS011;58588;48.102;19.682;2023-04-25T01:56:57;17.80;;;6.68;;
70929;SDS011;58588;48.102;19.682;2023-04-25T02:00:00;13.48;;;6.45;;
70929;SDS011;58588;48.102;19.682;2023-04-25T02:03:04;14.13;;;6.70;;
70929;SDS011;58588;48.102;19.682;2023-04-25T02:06:06;12.48;;;6.38;;
70929;SDS011;58588;48.102;19.682;2023-04-25T02:09:09;11.73;;;5.95;;
70929;SDS011;58588;48.102;19.682;2023-04-25T02:12:11;12.07;;;6.20;;
70929;SDS011;58588;48.102;19.682;2023-04-25T02:15:13;12.30;;;6.25;;
70929;SDS011;58588;48.102;19.682;2023-04-25T02:18:15;12.50;;;6.33;;
70929;SDS011;58588;48.102;19.682;2023-04-25T02:21:18;12.85;;;6.30;;
70929;SDS011;58588;48.102;19.682;2023-04-25T02:24:21;12.82;;;6.13;;
70929;SDS011;58588;48.102;19.682;2023-04-25T02:27:23;12.80;;;6.22;;
70929;SDS011;58588;48.102;19.682;2023-04-25T02:30:25;10.95;;;5.72;;
70929;SDS011;58588;48.102;19.682;2023-04-25T02:33:27;11.73;;;5.80;;
70929;SDS011;58588;48.102;19.682;2023-04-25T02:36:29;11.63;;;5.70;;
70929;SDS011;58588;48.102;19.682;2023-04-25T02:39:35;12.35;;;6.25;;
70929;SDS011;58588;48.102;19.682;2023-04-25T02:42:37;11.63;;;5.07;;
70929;SDS011;58588;48.102;19.682;2023-04-25T02:45:39;11.85;;;5.53;;
70929;SDS011;58588;48.102;19.682;2023-04-25T02:48:41;10.30;;;5.23;;
70929;SDS011;58588;48.102;19.682;2023-04-25T02:51:43;10.80;;;4.93;;
70929;SDS011;58588;48.102;19.682;2023-04-25T02:54:47;15.68;;;5.38;;
70929;SDS011;58588;48.102;19.682;2023-04-25T02:57:49;11.40;;;5.30;;
70929;SDS011;58588;48.102;19.682;2023-04-25T03:00:51;9.80;;;4.70;;
70929;SDS011;58588;48.102;19.682;2023-04-25T03:03:53;10.13;;;4.50;;
70929;SDS011;58588;48.102;19.682;2023-04-25T03:10:26;10.45;;;4.63;;
70929;SDS011;58588;48.102;19.682;2023-04-25T03:13:28;9.40;;;4.40;;
70929;SDS011;58588;48.102;19.682;2023-04-25T03:16:30;8.60;;;4.30;;
70929;SDS011;58588;48.102;19.682;2023-04-25T03:19:32;9.87;;;4.40;;
70929;SDS011;58588;48.102;19.682;2023-04-25T03:22:34;10.02;;;4.30;;
70929;SDS011;58588;48.102;19.682;2023-04-25T03:25:37;10.27;;;4.28;;
70929;SDS011;58588;48.102;19.682;2023-04-25T03:28:39;9.38;;;4.40;;
70929;SDS011;58588;48.102;19.682;2023-04-25T03:31:41;8.50;;;3.85;;
70929;SDS011;58588;48.102;19.682;2023-04-25T03:34:43;8.67;;;3.87;;
70929;SDS011;58588;48.102;19.682;2023-04-25T03:37:45;9.95;;;3.60;;
70929;SDS011;58588;48.102;19.682;2023-04-25T03:40:49;9.50;;;4.10;;
70929;SDS011;58588;48.102;19.682;2023-04-25T03:43:51;8.43;;;3.97;;
70929;SDS011;58588;48.102;19.682;2023-04-25T03:46:53;10.82;;;4.25;;
70929;SDS011;58588;48.102;19.682;2023-04-25T03:49:55;10.17;;;4.33;;
70929;SDS011;58588;48.102;19.682;2023-04-25T03:52:57;8.52;;;4.07;;
70929;SDS011;58588;48.102;19.682;2023-04-25T03:56:02;8.65;;;4.07;;
70929;SDS011;58588;48.102;19.682;2023-04-25T03:59:04;8.23;;;3.80;;
70929;SDS011;58588;48.102;19.682;2023-04-25T04:02:06;8.25;;;3.85;;
70929;SDS011;58588;48.102;19.682;2023-04-25T04:05:08;8.27;;;3.83;;
70929;SDS011;58588;48.102;19.682;2023-04-25T04:08:10;8.15;;;3.85;;
70929;SDS011;58588;48.102;19.682;2023-04-25T04:11:14;8.15;;;3.80;;
70929;SDS011;58588;48.102;19.682;2023-04-25T04:14:16;8.45;;;3.78;;
70929;SDS011;58588;48.102;19.682;2023-04-25T04:17:18;10.15;;;4.10;;
70929;SDS011;58588;48.102;19.682;2023-04-25T04:20:20;11.60;;;3.97;;
70929;SDS011;58588;48.102;19.682;2023-04-25T04:23:22;9.57;;;3.95;;
70929;SDS011;58588;48.102;19.682;2023-04-25T04:26:26;8.57;;;3.95;;
70929;SDS011;58588;48.102;19.682;2023-04-25T04:29:28;8.65;;;3.67;;
70929;SDS011;58588;48.102;19.682;2023-04-25T04:32:30;9.63;;;3.72;;
70929;SDS011;58588;48.102;19.682;2023-04-25T04:35:34;9.03;;;3.60;;
70929;SDS011;58588;48.102;19.682;2023-04-25T04:38:36;8.60;;;3.75;;
70929;SDS011;58588;48.102;19.682;2023-04-25T04:41:41;8.38;;;3.80;;
70929;SDS011;58588;48.102;19.682;2023-04-25T04:44:43;7.90;;;3.42;;
70929;SDS011;58588;48.102;19.682;2023-04-25T04:47:45;7.95;;;3.47;;
70929;SDS011;58588;48.102;19.682;2023-04-25T04:50:48;8.20;;;3.33;;
70929;SDS011;58588;48.102;19.682;2023-04-25T04:53:50;7.45;;;3.30;;
70929;SDS011;58588;48.102;19.682;2023-04-25T04:56:54;7.25;;;3.38;;
70929;SDS011;58588;48.102;19.682;2023-04-25T04:59:56;10.18;;;3.80;;
70929;SDS011;58588;48.102;19.682;2023-04-25T05:02:58;8.10;;;3.50;;
70929;SDS011;58588;48.102;19.682;2023-04-25T05:06:00;9.00;;;3.53;;
70929;SDS011;58588;48.102;19.682;2023-04-25T05:09:02;7.55;;;3.63;;
70929;SDS011;58588;48.102;19.682;2023-04-25T05:12:06;7.20;;;3.20;;
70929;SDS011;58588;48.102;19.682;2023-04-25T05:15:08;7.65;;;3.35;;
70929;SDS011;58588;48.102;19.682;2023-04-25T05:18:11;8.10;;;3.55;;
70929;SDS011;58588;48.102;19.682;2023-04-25T05:21:13;8.87;;;3.60;;
70929;SDS011;58588;48.102;19.682;2023-04-25T05:24:15;7.95;;;3.38;;
70929;SDS011;58588;48.102;19.682;2023-04-25T05:27:18;9.38;;;3.38;;
70929;SDS011;58588;48.102;19.682;2023-04-25T05:30:21;7.10;;;3.30;;
70929;SDS011;58588;48.102;19.682;2023-04-25T05:33:23;8.93;;;3.30;;
70929;SDS011;58588;48.102;19.682;2023-04-25T05:36:25;6.67;;;2.93;;
70929;SDS011;58588;48.102;19.682;2023-04-25T05:39:28;8.18;;;3.33;;
70929;SDS011;58588;48.102;19.682;2023-04-25T05:42:31;6.25;;;2.70;;
70929;SDS011;58588;48.102;19.682;2023-04-25T05:45:34;6.75;;;2.72;;
70929;SDS011;58588;48.102;19.682;2023-04-25T05:48:36;7.45;;;2.90;;
70929;SDS011;58588;48.102;19.682;2023-04-25T05:51:39;7.43;;;2.87;;
70929;SDS011;58588;48.102;19.682;2023-04-25T05:54:41;6.63;;;2.70;;
70929;SDS011;58588;48.102;19.682;2023-04-25T05:57:44;5.63;;;2.15;;
70929;SDS011;58588;48.102;19.682;2023-04-25T06:00:47;7.57;;;2.55;;
70929;SDS011;58588;48.102;19.682;2023-04-25T06:03:49;6.47;;;2.53;;
70929;SDS011;58588;48.102;19.682;2023-04-25T06:06:51;6.73;;;2.70;;
70929;SDS011;58588;48.102;19.682;2023-04-25T06:09:53;6.80;;;2.63;;
70929;SDS011;58588;48.102;19.682;2023-04-25T06:12:56;6.60;;;2.28;;
70929;SDS011;58588;48.102;19.682;2023-04-25T06:15:58;5.78;;;2.20;;
70929;SDS011;58588;48.102;19.682;2023-04-25T06:19:01;5.00;;;1.83;;
70929;SDS011;58588;48.102;19.682;2023-04-25T06:22:03;5.33;;;1.80;;
70929;SDS011;58588;48.102;19.682;2023-04-25T06:25:05;5.15;;;2.00;;
70929;SDS011;58588;48.102;19.682;2023-04-25T06:28:09;5.28;;;1.85;;
70929;SDS011;58588;48.102;19.682;2023-04-25T06:31:12;6.03;;;1.90;;
70929;SDS011;58588;48.102;19.682;2023-04-25T06:34:15;4.82;;;1.52;;
70929;SDS011;58588;48.102;19.682;2023-04-25T06:37:17;5.40;;;1.80;;
70929;SDS011;58588;48.102;19.682;2023-04-25T06:40:19;4.82;;;1.50;;
70929;SDS011;58588;48.102;19.682;2023-04-25T06:43:23;4.90;;;1.40;;
70929;SDS011;58588;48.102;19.682;2023-04-25T06:46:25;5.47;;;1.52;;
70929;SDS011;58588;48.102;19.682;2023-04-25T06:49:27;6.90;;;1.42;;
70929;SDS011;58588;48.102;19.682;2023-04-25T06:52:29;4.23;;;1.20;;
70929;SDS011;58588;48.102;19.682;2023-04-25T06:55:31;4.47;;;1.17;;
70929;SDS011;58588;48.102;19.682;2023-04-25T06:58:36;3.88;;;1.02;;
70929;SDS011;58588;48.102;19.682;2023-04-25T07:01:38;4.40;;;1.13;;
70929;SDS011;58588;48.102;19.682;2023-04-25T07:04:40;3.92;;;1.15;;
70929;SDS011;58588;48.102;19.682;2023-04-25T07:07:42;3.80;;;0.90;;
70929;SDS011;58588;48.102;19.682;2023-04-25T07:10:44;4.72;;;1.15;;
70929;SDS011;58588;48.102;19.682;2023-04-25T07:13:48;4.47;;;1.17;;
70929;SDS011;58588;48.102;19.682;2023-04-25T07:16:50;4.28;;;0.93;;
70929;SDS011;58588;48.102;19.682;2023-04-25T07:19:52;4.97;;;1.27;;
70929;SDS011;58588;48.102;19.682;2023-04-25T07:22:54;3.93;;;0.80;;
70929;SDS011;58588;48.102;19.682;2023-04-25T07:25:57;4.80;;;1.08;;
70929;SDS011;58588;48.102;19.682;2023-04-25T07:29:00;4.70;;;1.00;;
70929;SDS011;58588;48.102;19.682;2023-04-25T07:32:03;4.55;;;1.02;;
70929;SDS011;58588;48.102;19.682;2023-04-25T07:35:05;4.80;;;0.80;;
70929;SDS011;58588;48.102;19.682;2023-04-25T07:38:08;4.40;;;0.70;;
70929;SDS011;58588;48.102;19.682;2023-04-25T07:41:10;5.15;;;0.80;;
70929;SDS011;58588;48.102;19.682;2023-04-25T07:44:13;5.25;;;1.00;;
70929;SDS011;58588;48.102;19.682;2023-04-25T07:47:16;3.97;;;0.80;;
70929;SDS011;58588;48.102;19.682;2023-04-25T07:50:19;2.60;;;0.57;;
70929;SDS011;58588;48.102;19.682;2023-04-25T07:53:21;4.63;;;0.50;;
70929;SDS011;58588;48.102;19.682;2023-04-25T07:56:23;3.22;;;0.60;;
70929;SDS011;58588;48.102;19.682;2023-04-25T07:59:26;3.90;;;0.65;;
70929;SDS011;58588;48.102;19.682;2023-04-25T08:02:28;3.55;;;0.60;;
70929;SDS011;58588;48.102;19.682;2023-04-25T08:05:30;2.83;;;0.60;;
70929;SDS011;58588;48.102;19.682;2023-04-25T08:08:33;3.43;;;0.63;;
70929;SDS011;58588;48.102;19.682;2023-04-25T08:11:35;3.10;;;0.68;;
70929;SDS011;58588;48.102;19.682;2023-04-25T08:14:38;5.75;;;1.50;;
70929;SDS011;58588;48.102;19.682;2023-04-25T08:17:40;3.80;;;0.80;;
70929;SDS011;58588;48.102;19.682;2023-04-25T08:20:44;3.33;;;0.70;;
70929;SDS011;58588;48.102;19.682;2023-04-25T08:23:46;2.20;;;0.53;;
70929;SDS011;58588;48.102;19.682;2023-04-25T08:26:48;2.78;;;0.40;;
70929;SDS011;58588;48.102;19.682;2023-04-25T08:29:51;3.70;;;0.60;;
70929;SDS011;58588;48.102;19.682;2023-04-25T08:32:53;4.45;;;0.50;;
70929;SDS011;58588;48.102;19.682;2023-04-25T08:35:55;3.60;;;0.60;;
70929;SDS011;58588;48.102;19.682;2023-04-25T08:38:57;2.67;;;0.47;;
70929;SDS011;58588;48.102;19.682;2023-04-25T08:42:00;4.03;;;0.50;;
70929;SDS011;58588;48.102;19.682;2023-04-25T08:45:06;2.65;;;0.50;;
70929;SDS011;58588;48.102;19.682;2023-04-25T08:48:10;2.40;;;0.40;;
70929;SDS011;58588;48.102;19.682;2023-04-25T08:51:15;3.15;;;0.57;;
70929;SDS011;58588;48.102;19.682;2023-04-25T08:54:23;2.53;;;0.40;;
70929;SDS011;58588;48.102;19.682;2023-04-25T08:57:28;4.28;;;0.50;;
70929;SDS011;58588;48.102;19.682;2023-04-25T09:00:32;3.25;;;0.50;;
70929;SDS011;58588;48.102;19.682;2023-04-25T09:03:34;5.57;;;0.50;;
70929;SDS011;58588;48.102;19.682;2023-04-25T09:06:37;3.90;;;0.40;;
70929;SDS011;58588;48.102;19.682;2023-04-25T09:09:39;3.27;;;0.60;;
70929;SDS011;58588;48.102;19.682;2023-04-25T09:12:41;2.40;;;0.40;;
70929;SDS011;58588;48.102;19.682;2023-04-25T09:15:51;3.95;;;0.50;;
70929;SDS011;58588;48.102;19.682;2023-04-25T09:18:53;2.30;;;0.40;;
70929;SDS011;58588;48.102;19.682;2023-04-25T09:21:56;3.55;;;0.65;;
70929;SDS011;58588;48.102;19.682;2023-04-25T09:25:00;2.00;;;0.40;;
70929;SDS011;58588;48.102;19.682;2023-04-25T09:28:05;3.78;;;0.50;;
70929;SDS011;58588;48.102;19.682;2023-04-25T09:31:09;3.78;;;0.80;;
70929;SDS011;58588;48.102;19.682;2023-04-25T09:34:12;3.05;;;0.50;;
70929;SDS011;58588;48.102;19.682;2023-04-25T09:37:19;2.10;;;0.30;;
70929;SDS011;58588;48.102;19.682;2023-04-25T09:40:21;1.80;;;0.30;;
70929;SDS011;58588;48.102;19.682;2023-04-25T09:43:24;2.08;;;0.38;;
70929;SDS011;58588;48.102;19.682;2023-04-25T09:46:33;2.85;;;0.50;;
70929;SDS011;58588;48.102;19.682;2023-04-25T09:49:38;3.22;;;0.40;;
70929;SDS011;58588;48.102;19.682;2023-04-25T09:52:41;2.55;;;0.50;;
70929;SDS011;58588;48.102;19.682;2023-04-25T09:55:43;2.97;;;0.50;;
70929;SDS011;58588;48.102;19.682;2023-04-25T09:58:47;2.28;;;0.50;;
70929;SDS011;58588;48.102;19.682;2023-04-25T10:01:52;2.05;;;0.32;;
70929;SDS011;58588;48.102;19.682;2023-04-25T10:04:56;2.42;;;0.43;;
70929;SDS011;58588;48.102;19.682;2023-04-25T10:08:00;2.25;;;0.38;;
70929;SDS011;58588;48.102;19.682;2023-04-25T10:11:04;5.27;;;0.70;;
70929;SDS011;58588;48.102;19.682;2023-04-25T10:14:08;5.07;;;1.05;;
70929;SDS011;58588;48.102;19.682;2023-04-25T10:17:12;9.57;;;4.00;;
70929;SDS011;58588;48.102;19.682;2023-04-25T10:20:15;8.07;;;2.95;;
70929;SDS011;58588;48.102;19.682;2023-04-25T10:23:18;10.32;;;3.28;;
70929;SDS011;58588;48.102;19.682;2023-04-25T10:26:21;7.20;;;2.07;;
70929;SDS011;58588;48.102;19.682;2023-04-25T10:29:24;6.72;;;2.50;;
70929;SDS011;58588;48.102;19.682;2023-04-25T10:32:29;6.05;;;1.38;;
70929;SDS011;58588;48.102;19.682;2023-04-25T10:35:32;5.80;;;1.58;;
70929;SDS011;58588;48.102;19.682;2023-04-25T10:38:35;5.82;;;1.80;;
70929;SDS011;58588;48.102;19.682;2023-04-25T10:41:47;5.77;;;1.20;;
70929;SDS011;58588;48.102;19.682;2023-04-25T10:45:01;5.25;;;1.17;;
70929;SDS011;58588;48.102;19.682;2023-04-25T10:48:05;5.45;;;1.40;;
70929;SDS011;58588;48.102;19.682;2023-04-25T10:51:27;7.30;;;2.10;;
70929;SDS011;58588;48.102;19.682;2023-04-25T10:54:32;5.65;;;1.50;;
70929;SDS011;58588;48.102;19.682;2023-04-25T10:57:37;4.97;;;0.90;;
70929;SDS011;58588;48.102;19.682;2023-04-25T11:00:40;5.63;;;1.42;;
70929;SDS011;58588;48.102;19.682;2023-04-25T11:03:44;5.00;;;1.13;;
70929;SDS011;58588;48.102;19.682;2023-04-25T11:06:51;3.35;;;0.63;;
70929;SDS011;58588;48.102;19.682;2023-04-25T11:10:02;7.70;;;2.35;;
70929;SDS011;58588;48.102;19.682;2023-04-25T11:13:05;8.00;;;1.70;;
70929;SDS011;58588;48.102;19.682;2023-04-25T11:16:07;3.63;;;0.90;;
70929;SDS011;58588;48.102;19.682;2023-04-25T11:19:11;5.38;;;1.50;;
70929;SDS011;58588;48.102;19.682;2023-04-25T11:22:13;4.70;;;1.05;;
70929;SDS011;58588;48.102;19.682;2023-04-25T11:25:15;6.00;;;1.60;;
70929;SDS011;58588;48.102;19.682;2023-04-25T11:28:20;8.17;;;2.57;;
70929;SDS011;58588;48.102;19.682;2023-04-25T11:31:24;4.25;;;0.85;;
70929;SDS011;58588;48.102;19.682;2023-04-25T11:34:28;5.53;;;1.20;;
70929;SDS011;58588;48.102;19.682;2023-04-25T11:37:31;4.68;;;1.23;;
70929;SDS011;58588;48.102;19.682;2023-04-25T11:40:35;5.40;;;1.55;;
70929;SDS011;58588;48.102;19.682;2023-04-25T11:43:37;9.87;;;3.67;;
70929;SDS011;58588;48.102;19.682;2023-04-25T11:46:39;6.00;;;2.15;;
70929;SDS011;58588;48.102;19.682;2023-04-25T11:49:42;4.00;;;0.90;;
70929;SDS011;58588;48.102;19.682;2023-04-25T11:52:45;3.97;;;0.93;;
70929;SDS011;58588;48.102;19.682;2023-04-25T11:55:48;3.60;;;0.60;;
70929;SDS011;58588;48.102;19.682;2023-04-25T11:58:59;3.77;;;0.40;;
70929;SDS011;58588;48.102;19.682;2023-04-25T12:02:02;3.92;;;0.50;;
70929;SDS011;58588;48.102;19.682;2023-04-25T12:05:08;2.85;;;0.50;;
70929;SDS011;58588;48.102;19.682;2023-04-25T12:08:12;5.07;;;0.60;;
70929;SDS011;58588;48.102;19.682;2023-04-25T12:11:20;2.78;;;0.60;;
70929;SDS011;58588;48.102;19.682;2023-04-25T12:14:23;4.40;;;0.63;;
70929;SDS011;58588;48.102;19.682;2023-04-25T12:17:28;3.45;;;0.60;;
70929;SDS011;58588;48.102;19.682;2023-04-25T12:20:31;3.53;;;0.60;;
70929;SDS011;58588;48.102;19.682;2023-04-25T12:23:33;4.95;;;0.88;;
70929;SDS011;58588;48.102;19.682;2023-04-25T12:26:49;5.53;;;0.90;;
70929;SDS011;58588;48.102;19.682;2023-04-25T12:29:52;4.73;;;0.90;;
70929;SDS011;58588;48.102;19.682;2023-04-25T12:32:56;3.38;;;0.70;;
70929;SDS011;58588;48.102;19.682;2023-04-25T12:35:59;4.60;;;0.77;;
70929;SDS011;58588;48.102;19.682;2023-04-25T12:39:07;3.40;;;0.43;;
70929;SDS011;58588;48.102;19.682;2023-04-25T12:42:10;2.53;;;0.40;;
70929;SDS011;58588;48.102;19.682;2023-04-25T12:45:12;3.30;;;0.33;;
70929;SDS011;58588;48.102;19.682;2023-04-25T12:48:14;2.80;;;0.50;;
70929;SDS011;58588;48.102;19.682;2023-04-25T12:51:18;4.43;;;0.63;;
70929;SDS011;58588;48.102;19.682;2023-04-25T12:54:20;5.15;;;1.20;;
70929;SDS011;58588;48.102;19.682;2023-04-25T12:57:22;3.40;;;0.80;;
70929;SDS011;58588;48.102;19.682;2023-04-25T13:00:24;3.50;;;0.60;;
70929;SDS011;58588;48.102;19.682;2023-04-25T13:03:27;4.05;;;0.60;;
70929;SDS011;58588;48.102;19.682;2023-04-25T13:06:30;2.67;;;0.50;;
70929;SDS011;58588;48.102;19.682;2023-04-25T13:09:32;5.13;;;1.60;;
70929;SDS011;58588;48.102;19.682;2023-04-25T13:12:34;5.47;;;1.80;;
70929;SDS011;58588;48.102;19.682;2023-04-25T13:15:36;5.53;;;1.70;;
70929;SDS011;58588;48.102;19.682;2023-04-25T13:18:38;4.95;;;1.10;;
70929;SDS011;58588;48.102;19.682;2023-04-25T13:21:42;3.60;;;0.57;;
70929;SDS011;58588;48.102;19.682;2023-04-25T13:24:44;2.05;;;0.40;;
70929;SDS011;58588;48.102;19.682;2023-04-25T13:27:46;3.08;;;0.50;;
70929;SDS011;58588;48.102;19.682;2023-04-25T13:30:48;2.80;;;0.40;;
70929;SDS011;58588;48.102;19.682;2023-04-25T13:33:50;1.75;;;0.25;;
70929;SDS011;58588;48.102;19.682;2023-04-25T13:36:54;3.83;;;0.50;;
70929;SDS011;58588;48.102;19.682;2023-04-25T13:39:56;2.15;;;0.32;;
70929;SDS011;58588;48.102;19.682;2023-04-25T13:42:58;3.53;;;0.35;;
70929;SDS011;58588;48.102;19.682;2023-04-25T13:46:00;1.47;;;0.20;;
70929;SDS011;58588;48.102;19.682;2023-04-25T13:49:02;8.23;;;1.80;;
70929;SDS011;58588;48.102;19.682;2023-04-25T13:52:21;7.15;;;1.35;;
70929;SDS011;58588;48.102;19.682;2023-04-25T13:55:26;5.72;;;0.65;;
70929;SDS011;58588;48.102;19.682;2023-04-25T13:58:44;4.57;;;0.50;;
70929;SDS011;58588;48.102;19.682;2023-04-25T14:01:46;3.40;;;0.73;;
70929;SDS011;58588;48.102;19.682;2023-04-25T14:04:48;3.83;;;0.77;;
70929;SDS011;58588;48.102;19.682;2023-04-25T14:07:52;3.10;;;0.60;;
70929;SDS011;58588;48.102;19.682;2023-04-25T14:10:54;1.85;;;0.30;;
70929;SDS011;58588;48.102;19.682;2023-04-25T14:13:56;3.60;;;0.50;;
70929;SDS011;58588;48.102;19.682;2023-04-25T14:16:58;4.17;;;0.77;;
70929;SDS011;58588;48.102;19.682;2023-04-25T14:20:00;4.15;;;0.90;;
70929;SDS011;58588;48.102;19.682;2023-04-25T14:23:04;3.83;;;0.88;;
70929;SDS011;58588;48.102;19.682;2023-04-25T14:26:06;3.63;;;0.90;;
70929;SDS011;58588;48.102;19.682;2023-04-25T14:29:12;7.47;;;2.03;;
70929;SDS011;58588;48.102;19.682;2023-04-25T14:32:14;5.10;;;1.80;;
70929;SDS011;58588;48.102;19.682;2023-04-25T14:35:16;5.15;;;1.30;;
70929;SDS011;58588;48.102;19.682;2023-04-25T14:38:20;4.75;;;0.90;;
70929;SDS011;58588;48.102;19.682;2023-04-25T14:41:23;4.40;;;0.70;;
70929;SDS011;58588;48.102;19.682;2023-04-25T14:44:26;3.15;;;0.68;;
70929;SDS011;58588;48.102;19.682;2023-04-25T14:47:28;3.10;;;0.67;;
70929;SDS011;58588;48.102;19.682;2023-04-25T14:50:30;4.15;;;0.80;;
70929;SDS011;58588;48.102;19.682;2023-04-25T14:53:33;3.30;;;0.77;;
70929;SDS011;58588;48.102;19.682;2023-04-25T14:56:35;3.22;;;0.68;;
70929;SDS011;58588;48.102;19.682;2023-04-25T14:59:37;5.30;;;1.00;;
70929;SDS011;58588;48.102;19.682;2023-04-25T15:02:39;2.90;;;0.63;;
70929;SDS011;58588;48.102;19.682;2023-04-25T15:05:42;4.47;;;1.02;;
70929;SDS011;58588;48.102;19.682;2023-04-25T15:08:45;4.85;;;1.33;;
70929;SDS011;58588;48.102;19.682;2023-04-25T15:11:47;6.35;;;1.60;;
70929;SDS011;58588;48.102;19.682;2023-04-25T15:14:50;4.63;;;1.45;;
70929;SDS011;58588;48.102;19.682;2023-04-25T15:17:52;6.73;;;1.77;;
70929;SDS011;58588;48.102;19.682;2023-04-25T15:20:55;5.57;;;1.80;;
70929;SDS011;58588;48.102;19.682;2023-04-25T15:23:59;7.47;;;1.80;;
70929;SDS011;58588;48.102;19.682;2023-04-25T15:27:01;5.53;;;1.35;;
70929;SDS011;58588;48.102;19.682;2023-04-25T15:30:05;4.90;;;1.55;;
70929;SDS011;58588;48.102;19.682;2023-04-25T15:33:07;4.83;;;1.50;;
70929;SDS011;58588;48.102;19.682;2023-04-25T15:36:09;4.88;;;1.38;;
70929;SDS011;58588;48.102;19.682;2023-04-25T15:39:13;5.20;;;1.65;;
70929;SDS011;58588;48.102;19.682;2023-04-25T15:42:15;4.10;;;1.40;;
70929;SDS011;58588;48.102;19.682;2023-04-25T15:45:18;4.80;;;1.45;;
70929;SDS011;58588;48.102;19.682;2023-04-25T15:48:21;6.23;;;2.27;;
70929;SDS011;58588;48.102;19.682;2023-04-25T15:51:23;5.20;;;1.83;;
70929;SDS011;58588;48.102;19.682;2023-04-25T15:54:27;5.82;;;1.92;;
70929;SDS011;58588;48.102;19.682;2023-04-25T15:57:29;6.25;;;1.58;;
70929;SDS011;58588;48.102;19.682;2023-04-25T16:00:33;5.95;;;2.10;;
70929;SDS011;58588;48.102;19.682;2023-04-25T16:03:36;11.30;;;2.57;;
70929;SDS011;58588;48.102;19.682;2023-04-25T16:06:39;34.90;;;24.83;;
70929;SDS011;58588;48.102;19.682;2023-04-25T16:09:43;9.38;;;5.28;;
70929;SDS011;58588;48.102;19.682;2023-04-25T16:12:46;8.70;;;4.10;;
70929;SDS011;58588;48.102;19.682;2023-04-25T16:15:48;7.60;;;3.60;;
70929;SDS011;58588;48.102;19.682;2023-04-25T16:18:50;5.37;;;2.10;;
70929;SDS011;58588;48.102;19.682;2023-04-25T16:21:52;10.80;;;2.45;;
70929;SDS011;58588;48.102;19.682;2023-04-25T16:24:56;6.55;;;2.92;;
70929;SDS011;58588;48.102;19.682;2023-04-25T16:27:58;11.45;;;3.42;;
70929;SDS011;58588;48.102;19.682;2023-04-25T16:31:00;16.60;;;8.55;;
70929;SDS011;58588;48.102;19.682;2023-04-25T16:34:02;15.77;;;9.97;;
70929;SDS011;58588;48.102;19.682;2023-04-25T16:37:05;14.73;;;9.52;;
70929;SDS011;58588;48.102;19.682;2023-04-25T16:40:09;17.65;;;9.98;;
70929;SDS011;58588;48.102;19.682;2023-04-25T16:43:11;14.73;;;7.25;;
70929;SDS011;58588;48.102;19.682;2023-04-25T16:46:13;17.25;;;13.02;;
70929;SDS011;58588;48.102;19.682;2023-04-25T16:49:18;8.97;;;5.90;;
70929;SDS011;58588;48.102;19.682;2023-04-25T16:52:20;14.80;;;9.80;;
70929;SDS011;58588;48.102;19.682;2023-04-25T16:55:24;11.52;;;5.50;;
70929;SDS011;58588;48.102;19.682;2023-04-25T16:58:26;17.45;;;10.48;;
70929;SDS011;58588;48.102;19.682;2023-04-25T17:01:28;10.20;;;6.28;;
70929;SDS011;58588;48.102;19.682;2023-04-25T17:04:31;8.73;;;5.13;;
70929;SDS011;58588;48.102;19.682;2023-04-25T17:07:33;10.43;;;5.28;;
70929;SDS011;58588;48.102;19.682;2023-04-25T17:10:37;36.58;;;20.30;;
70929;SDS011;58588;48.102;19.682;2023-04-25T17:13:39;55.80;;;34.03;;
70929;SDS011;58588;48.102;19.682;2023-04-25T17:16:43;26.48;;;15.82;;
70929;SDS011;58588;48.102;19.682;2023-04-25T17:19:45;14.37;;;8.10;;
70929;SDS011;58588;48.102;19.682;2023-04-25T17:22:47;9.15;;;4.43;;
70929;SDS011;58588;48.102;19.682;2023-04-25T17:25:50;10.00;;;4.55;;
70929;SDS011;58588;48.102;19.682;2023-04-25T17:28:52;8.50;;;2.20;;
70929;SDS011;58588;48.102;19.682;2023-04-25T17:31:55;8.05;;;2.25;;
70929;SDS011;58588;48.102;19.682;2023-04-25T17:34:57;9.47;;;5.87;;
70929;SDS011;58588;48.102;19.682;2023-04-25T17:37:59;9.15;;;3.38;;
70929;SDS011;58588;48.102;19.682;2023-04-25T17:41:03;6.20;;;2.08;;
70929;SDS011;58588;48.102;19.682;2023-04-25T17:44:05;6.97;;;2.28;;
70929;SDS011;58588;48.102;19.682;2023-04-25T17:47:07;7.03;;;2.33;;
70929;SDS011;58588;48.102;19.682;2023-04-25T17:50:10;8.87;;;2.40;;
70929;SDS011;58588;48.102;19.682;2023-04-25T17:53:15;7.93;;;3.20;;
70929;SDS011;58588;48.102;19.682;2023-04-25T17:56:19;10.40;;;4.65;;
70929;SDS011;58588;48.102;19.682;2023-04-25T17:59:21;14.40;;;5.35;;
70929;SDS011;58588;48.102;19.682;2023-04-25T18:02:23;15.52;;;6.18;;
70929;SDS011;58588;48.102;19.682;2023-04-25T18:05:26;27.53;;;9.73;;